Time;durP1;ratioP1;P1;durP2;ratioP2;P2;SDS_P1;SDS_P2;PMS_P1;PMS_P2;Temp;Humidity;BMP_temperature;BMP_pressure;BME280_temperature;BME280_humidity;BME280_pressure;Samples;Min_cycle;Max_cycle;Signal;HPM_P1;HPM_P2
2022/07/19 00:00:14;;;;;;;;;;;;;;;18.93;52.61;100218.63;5094329;28;19924;-71
2022/07/19 00:02:43;;;;;;;;;;;;;;;18.89;52.48;100221.31;5094746;28;19924;-70
2022/07/19 00:05:12;;;;;;;;;;;;;;;18.79;52.59;100225.88;5094591;28;19924;-71
2022/07/19 00:07:41;;;;;;;;;;;;;;;18.67;53.17;100221.03;5095064;28;20416;-71
2022/07/19 00:10:10;;;;;;;;;;;;;;;18.57;53.37;100224.75;5094199;28;20382;-72
2022/07/19 00:12:40;;;;;;;;;;;;;;;18.55;53.45;100222.19;5093476;28;19956;-71
2022/07/19 00:15:09;;;;;;;;;;;;;;;18.59;53.08;100229.00;5094486;28;19928;-72
2022/07/19 00:17:42;;;;;;;;;;;;;;;18.64;52.79;100221.94;5094484;28;19970;-70
2022/07/19 00:20:12;;;;;;;;;;;;;;;18.63;52.96;100220.25;5094522;28;20018;-72
2022/07/19 00:22:40;;;;;;;;;;;;;;;18.51;53.23;100220.56;5093118;28;19928;-70
2022/07/19 00:25:09;;;;;;;;;;;;;;;18.51;53.10;100215.41;5094043;28;19977;-72
2022/07/19 00:27:37;;;;;;;;;;;;;;;18.51;52.82;100224.88;5094276;28;19928;-71
2022/07/19 00:30:06;;;;;;;;;;;;;;;18.55;52.91;100222.19;5094309;28;19924;-71
2022/07/19 00:32:35;;;;;;;;;;;;;;;18.51;53.09;100215.41;5093958;28;19924;-71
2022/07/19 00:35:06;;;;;;;;;;;;;;;18.53;52.56;100213.63;5094209;28;19924;-71
2022/07/19 00:37:35;;;;;;;;;;;;;;;18.51;52.51;100215.41;5094226;28;19966;-71
2022/07/19 00:40:06;;;;;;;;;;;;;;;18.51;52.42;100215.41;5094270;28;20362;-72
2022/07/19 00:42:35;;;;;;;;;;;;;;;18.52;52.54;100217.06;5093987;28;19969;-71
2022/07/19 00:45:04;;;;;;;;;;;;;;;18.47;51.86;100221.53;5093964;28;19931;-70
2022/07/19 00:47:32;;;;;;;;;;;;;;;18.46;52.11;100222.41;5093031;28;19974;-71
2022/07/19 00:50:01;;;;;;;;;;;;;;;18.41;52.28;100228.53;5093778;28;19960;-71
2022/07/19 00:52:32;;;;;;;;;;;;;;;18.37;52.45;100227.78;5094005;28;20384;-71
2022/07/19 00:55:01;;;;;;;;;;;;;;;18.33;52.61;100222.72;5094130;28;20373;-71
2022/07/19 00:57:31;;;;;;;;;;;;;;;18.28;52.54;100227.13;5093634;28;19924;-70
2022/07/19 01:00:00;;;;;;;;;;;;;;;18.20;52.53;100219.56;5093840;28;20419;-70
2022/07/19 01:02:30;;;;;;;;;;;;;;;18.15;52.55;100221.41;5093730;28;19932;-71
2022/07/19 01:05:00;;;;;;;;;;;;;;;18.12;52.74;100215.44;5093829;28;19928;-71
2022/07/19 01:07:29;;;;;;;;;;;;;;;18.13;53.28;100217.16;5094039;28;19963;-71
2022/07/19 01:09:59;;;;;;;;;;;;;;;18.01;53.64;100213.09;5093605;28;20369;-71
2022/07/19 01:12:29;;;;;;;;;;;;;;;17.88;54.39;100209.94;5075707;28;19963;-70
2022/07/19 01:14:58;;;;;;;;;;;;;;;17.81;54.47;100216.13;5093610;28;20436;-71
2022/07/19 01:17:26;;;;;;;;;;;;;;;17.75;54.64;100216.28;5093467;28;19971;-70
2022/07/19 01:19:55;;;;;;;;;;;;;;;17.81;55.04;100216.13;5093524;28;19924;-70
2022/07/19 01:22:25;;;;;;;;;;;;;;;17.79;54.93;100217.03;5093870;28;19931;-72
2022/07/19 01:24:54;;;;;;;;;;;;;;;17.75;54.80;100220.56;5093863;28;19928;-70
2022/07/19 01:27:22;;;;;;;;;;;;;;;17.78;55.06;100210.19;5093527;28;19924;-70
2022/07/19 01:29:51;;;;;;;;;;;;;;;17.79;55.04;100211.88;5094106;28;19947;-72
2022/07/19 01:32:19;;;;;;;;;;;;;;;17.77;54.77;100208.47;5097325;28;20335;-70
2022/07/19 01:34:48;;;;;;;;;;;;;;;17.73;54.65;100217.19;5097076;28;19959;-71
2022/07/19 01:37:16;;;;;;;;;;;;;;;17.75;54.52;100210.25;5096993;28;19967;-71
2022/07/19 01:39:46;;;;;;;;;;;;;;;17.74;54.45;100211.97;5096982;28;20048;-72
2022/07/19 01:42:15;;;;;;;;;;;;;;;17.71;54.13;100208.59;5096961;28;19978;-70
2022/07/19 01:44:43;;;;;;;;;;;;;;;17.70;54.13;100214.66;5097343;28;20271;-71
2022/07/19 01:47:11;;;;;;;;;;;;;;;17.71;53.91;100206.00;5096813;28;19924;-72
2022/07/19 01:49:40;;;;;;;;;;;;;;;17.68;54.04;100203.50;5097098;28;19928;-70
2022/07/19 01:52:09;;;;;;;;;;;;;;;17.66;53.87;100200.94;5097046;28;20366;-70
2022/07/19 01:54:37;;;;;;;;;;;;;;;17.63;54.14;100197.59;5095772;28;19924;-70
2022/07/19 01:57:07;;;;;;;;;;;;;;;17.58;54.09;100200.28;5096831;28;19947;-70
2022/07/19 01:59:36;;;;;;;;;;;;;;;17.57;54.21;100201.16;5096611;28;20473;-72
2022/07/19 02:02:05;;;;;;;;;;;;;;;17.58;54.04;100199.41;5096534;28;19924;-71
2022/07/19 02:04:33;;;;;;;;;;;;;;;17.55;54.19;100202.91;5096824;28;19924;-71
2022/07/19 02:07:02;;;;;;;;;;;;;;;17.54;54.24;100201.19;5096762;28;20317;-70
2022/07/19 02:09:30;;;;;;;;;;;;;;;17.49;54.34;100204.75;5096404;28;19953;-70
2022/07/19 02:11:59;;;;;;;;;;;;;;;17.43;54.28;100208.28;5096352;28;19930;-72
2022/07/19 02:14:28;;;;;;;;;;;;;;;17.37;54.74;100209.25;5096694;28;19963;-71
2022/07/19 02:16:57;;;;;;;;;;;;;;;17.35;54.82;100211.03;5096447;28;19946;-70
2022/07/19 02:19:26;;;;;;;;;;;;;;;17.33;54.76;100202.47;5096525;28;20303;-71
2022/07/19 02:21:54;;;;;;;;;;;;;;;17.35;54.80;100216.19;5096444;28;20332;-70
2022/07/19 02:24:23;;;;;;;;;;;;;;;17.31;55.27;100217.13;5096211;28;20439;-71
2022/07/19 02:26:51;;;;;;;;;;;;;;;17.29;54.94;100216.31;5094827;28;19924;-71
2022/07/19 02:29:20;;;;;;;;;;;;;;;17.28;55.15;100219.75;5096226;28;19924;-70
2022/07/19 02:31:50;;;;;;;;;;;;;;;17.32;55.38;100220.56;5096404;28;19924;-73
2022/07/19 02:34:18;;;;;;;;;;;;;;;17.29;55.88;100218.91;5096306;28;20293;-70
2022/07/19 02:36:47;;;;;;;;;;;;;;;17.21;56.39;100218.19;5096127;28;19950;-71
2022/07/19 02:39:16;;;;;;;;;;;;;;;17.20;56.00;100226.78;5095790;28;20019;-70
2022/07/19 02:41:44;;;;;;;;;;;;;;;17.23;56.00;100215.56;5094692;28;19973;-71
2022/07/19 02:44:13;;;;;;;;;;;;;;;17.23;55.75;100226.75;5096341;28;19959;-70
2022/07/19 02:46:41;;;;;;;;;;;;;;;17.24;55.69;100220.72;5095617;28;20328;-71
2022/07/19 02:49:11;;;;;;;;;;;;;;;17.20;55.82;100221.63;5095585;28;19935;-72
2022/07/19 02:51:40;;;;;;;;;;;;;;;17.22;56.00;100224.19;5095912;28;19974;-71
2022/07/19 02:54:08;;;;;;;;;;;;;;;17.20;55.88;100226.78;5094343;28;19931;-70
2022/07/19 02:56:37;;;;;;;;;;;;;;;17.19;56.35;100230.25;5095462;28;19978;-70
2022/07/19 02:59:06;;;;;;;;;;;;;;;17.15;56.79;100235.50;5095350;28;19924;-71
2022/07/19 03:01:34;;;;;;;;;;;;;;;17.03;57.20;100236.59;5095465;28;19962;-70
2022/07/19 03:04:03;;;;;;;;;;;;;;;16.98;57.50;100232.38;5095642;28;19968;-70
2022/07/19 03:06:33;;;;;;;;;;;;;;;17.01;57.71;100234.91;5095492;28;19946;-71
2022/07/19 03:09:01;;;;;;;;;;;;;;;16.97;57.93;100234.09;5095605;28;19978;-71
2022/07/19 03:11:30;;;;;;;;;;;;;;;16.96;58.23;100234.16;5095493;28;19928;-72
2022/07/19 03:13:58;;;;;;;;;;;;;;;16.95;58.07;100229.84;5096018;28;19974;-70
2022/07/19 03:16:27;;;;;;;;;;;;;;;17.01;58.21;100230.59;5095116;28;19970;-70
2022/07/19 03:18:55;;;;;;;;;;;;;;;17.04;58.17;100235.69;5095380;28;20027;-72
2022/07/19 03:21:24;;;;;;;;;;;;;;;16.96;58.32;100239.31;5094987;28;19931;-70
2022/07/19 03:23:54;;;;;;;;;;;;;;;16.75;58.59;100240.50;5094934;28;19931;-71
2022/07/19 03:26:22;;;;;;;;;;;;;;;16.61;59.28;100245.03;5095262;28;19924;-70
2022/07/19 03:28:52;;;;;;;;;;;;;;;16.56;59.40;100246.84;5094756;28;19960;-71
2022/07/19 03:31:21;;;;;;;;;;;;;;;16.51;59.78;100244.34;5094868;28;19974;-70
2022/07/19 03:33:50;;;;;;;;;;;;;;;16.50;59.86;100246.91;5094918;28;20289;-72
2022/07/19 03:36:18;;;;;;;;;;;;;;;16.49;59.81;100250.34;5094734;28;19924;-70
2022/07/19 03:38:47;;;;;;;;;;;;;;;16.54;59.49;100248.59;5094563;28;19927;-72
2022/07/19 03:41:17;;;;;;;;;;;;;;;16.52;60.10;100260.66;5095013;28;19924;-71
2022/07/19 03:43:45;;;;;;;;;;;;;;;16.58;59.97;100261.41;5094675;28;19924;-70
2022/07/19 03:46:14;;;;;;;;;;;;;;;16.58;59.76;100260.56;5094569;28;19932;-71
2022/07/19 03:48:42;;;;;;;;;;;;;;;16.65;59.75;100268.16;5094512;28;19959;-70
2022/07/19 03:51:11;;;;;;;;;;;;;;;16.75;59.59;100267.13;5094724;28;19977;-71
2022/07/19 03:53:39;;;;;;;;;;;;;;;16.85;59.49;100275.56;5094107;28;19924;-71
2022/07/19 03:56:08;;;;;;;;;;;;;;;16.82;59.83;100273.03;5094715;28;19928;-70
2022/07/19 03:58:38;;;;;;;;;;;;;;;16.83;59.90;100274.75;5094812;28;20039;-71
2022/07/19 04:01:07;;;;;;;;;;;;;;;16.90;59.37;100263.47;5094492;28;19931;-71
2022/07/19 04:03:37;;;;;;;;;;;;;;;16.97;59.50;100264.19;5093409;28;19924;-70
2022/07/19 04:06:06;;;;;;;;;;;;;;;16.98;59.49;100269.34;5094319;28;19924;-71
2022/07/19 04:08:34;;;;;;;;;;;;;;;16.96;59.71;100270.25;5094480;28;19947;-71
2022/07/19 04:11:05;;;;;;;;;;;;;;;17.11;59.51;100267.38;5093085;28;19951;-70
2022/07/19 04:13:35;;;;;;;;;;;;;;;17.26;58.56;100273.13;5094526;28;19924;-71
2022/07/19 04:16:06;;;;;;;;;;;;;;;17.40;58.05;100276.31;5094253;28;19973;-71
2022/07/19 04:18:35;;;;;;;;;;;;;;;17.54;57.62;100272.66;5076160;28;19946;-71
2022/07/19 04:21:04;;;;;;;;;;;;;;;17.66;56.91;100273.25;5094357;28;19924;-71
2022/07/19 04:23:33;;;;;;;;;;;;;;;17.75;56.39;100272.22;5094078;28;19967;-71
2022/07/19 04:26:01;;;;;;;;;;;;;;;17.81;55.59;100272.06;5094038;28;19924;-71
2022/07/19 04:28:30;;;;;;;;;;;;;;;17.88;55.20;100281.41;5094428;28;19972;-71
2022/07/19 04:30:58;;;;;;;;;;;;;;;17.94;54.91;100273.53;5093987;28;19934;-70
2022/07/19 04:33:28;;;;;;;;;;;;;;;18.01;54.73;100275.09;5093752;28;19923;-72
2022/07/19 04:35:57;;;;;;;;;;;;;;;18.13;54.79;100279.16;5094356;28;19973;-70
2022/07/19 04:38:25;;;;;;;;;;;;;;;18.24;54.80;100277.16;5094165;28;19959;-70
2022/07/19 04:40:54;;;;;;;;;;;;;;;18.33;54.58;100271.81;5094379;28;20271;-71
2022/07/19 04:43:27;;;;;;;;;;;;;;;18.45;54.29;100267.19;5093953;28;19975;-71
2022/07/19 04:45:56;;;;;;;;;;;;;;;18.57;54.12;100277.28;5093794;28;19924;-72
2022/07/19 04:48:25;;;;;;;;;;;;;;;18.64;53.78;100278.84;5093919;28;19924;-72
2022/07/19 04:50:55;;;;;;;;;;;;;;;18.81;53.82;100278.47;5093982;28;20376;-71
2022/07/19 04:53:24;;;;;;;;;;;;;;;18.96;53.56;100266.84;5093825;28;20366;-71
2022/07/19 04:55:52;;;;;;;;;;;;;;;19.11;53.30;100269.06;5093855;28;19927;-71
2022/07/19 04:58:21;;;;;;;;;;;;;;;19.26;53.01;100263.47;5093681;28;19977;-72
2022/07/19 05:00:49;;;;;;;;;;;;;;;19.37;52.93;100264.91;5093636;28;19924;-71
2022/07/19 05:03:18;;;;;;;;;;;;;;;19.47;52.51;100256.91;5094062;28;20270;-73
2022/07/19 05:05:46;;;;;;;;;;;;;;;19.57;52.44;100254.00;5095460;28;19981;-72
2022/07/19 05:08:17;;;;;;;;;;;;;;;19.68;52.25;100257.13;5097572;28;19963;-72
2022/07/19 05:10:45;;;;;;;;;;;;;;;19.76;51.85;100260.38;5096838;28;19963;-71
2022/07/19 05:13:14;;;;;;;;;;;;;;;19.78;51.56;100256.00;5097786;28;20264;-71
2022/07/19 05:15:43;;;;;;;;;;;;;;;19.93;51.59;100260.72;5097663;28;19924;-71
2022/07/19 05:18:12;;;;;;;;;;;;;;;20.08;51.60;100261.16;5097726;28;20324;-72
2022/07/19 05:20:40;;;;;;;;;;;;;;;20.22;51.30;100259.88;5097575;28;19978;-70
2022/07/19 05:23:09;;;;;;;;;;;;;;;20.23;51.04;100258.97;5097513;28;19924;-71
2022/07/19 05:25:39;;;;;;;;;;;;;;;20.32;50.96;100258.72;5097537;28;19924;-70
2022/07/19 05:28:08;;;;;;;;;;;;;;;20.38;50.82;100260.25;5097833;28;19979;-70
2022/07/19 05:30:36;;;;;;;;;;;;;;;20.50;50.72;100265.06;5097487;28;19946;-73
2022/07/19 05:33:05;;;;;;;;;;;;;;;20.65;50.74;100261.97;5096694;28;19924;-71
2022/07/19 05:35:34;;;;;;;;;;;;;;;20.79;50.39;100262.38;5097054;28;19924;-71
2022/07/19 05:38:03;;;;;;;;;;;;;;;20.93;50.29;100267.09;5097337;28;20267;-71
2022/07/19 05:40:36;;;;;;;;;;;;;;;21.09;50.36;100260.53;5097639;28;19924;-70
2022/07/19 05:43:06;;;;;;;;;;;;;;;21.26;50.05;100268.56;5096679;28;19983;-71
2022/07/19 05:45:35;;;;;;;;;;;;;;;21.31;49.84;100266.66;5097135;28;20415;-71
2022/07/19 05:48:03;;;;;;;;;;;;;;;21.42;49.58;100263.69;5096815;28;19974;-72
2022/07/19 05:50:32;;;;;;;;;;;;;;;21.60;49.30;100263.00;5097111;28;19997;-71
2022/07/19 05:53:00;;;;;;;;;;;;;;;21.72;49.11;100252.16;5096658;28;19970;-71
2022/07/19 05:55:29;;;;;;;;;;;;;;;21.87;48.89;100252.50;5096589;28;19974;-72
2022/07/19 05:57:57;;;;;;;;;;;;;;;22.02;48.40;100256.28;5096878;28;19950;-73
2022/07/19 06:00:27;;;;;;;;;;;;;;;22.14;47.87;100262.75;5096757;28;19958;-71
2022/07/19 06:02:56;;;;;;;;;;;;;;;22.25;47.59;100256.22;5096797;28;19973;-71
2022/07/19 06:05:24;;;;;;;;;;;;;;;22.34;47.13;100248.03;5096771;28;20374;-72
2022/07/19 06:07:53;;;;;;;;;;;;;;;22.41;46.69;100244.28;5096385;28;19924;-72
2022/07/19 06:10:21;;;;;;;;;;;;;;;22.47;46.66;100249.25;5096388;28;19977;-73
2022/07/19 06:12:50;;;;;;;;;;;;;;;22.62;46.62;100247.84;5096738;28;20378;-72
2022/07/19 06:15:18;;;;;;;;;;;;;;;22.70;46.33;100235.31;5096243;28;19973;-72
2022/07/19 06:17:48;;;;;;;;;;;;;;;22.86;46.32;100240.75;5096297;28;19932;-72
2022/07/19 06:20:16;;;;;;;;;;;;;;;22.93;45.99;100242.19;5095039;28;19968;-72
2022/07/19 06:22:45;;;;;;;;;;;;;;;23.03;46.01;100233.09;5096044;28;19973;-72
2022/07/19 06:25:13;;;;;;;;;;;;;;;23.15;45.99;100233.41;5096061;28;19928;-72
2022/07/19 06:27:41;;;;;;;;;;;;;;;23.28;45.74;100229.34;5096251;28;20316;-73
2022/07/19 06:30:10;;;;;;;;;;;;;;;23.36;45.55;100230.78;5096282;28;19995;-73
2022/07/19 06:32:38;;;;;;;;;;;;;;;23.48;45.56;100231.09;5095461;28;20027;-71
2022/07/19 06:35:09;;;;;;;;;;;;;;;23.57;45.13;100229.84;5097169;28;19947;-73
2022/07/19 06:37:38;;;;;;;;;;;;;;;23.70;45.04;100224.00;5094718;28;19924;-71
2022/07/19 06:40:07;;;;;;;;;;;;;;;23.78;44.82;100232.31;5096093;28;19993;-73
2022/07/19 06:42:35;;;;;;;;;;;;;;;23.83;44.70;100232.94;5096057;28;19977;-71
2022/07/19 06:45:04;;;;;;;;;;;;;;;23.96;44.59;100228.03;5096271;28;19928;-71
2022/07/19 06:47:33;;;;;;;;;;;;;;;24.13;44.32;100235.09;5095501;28;19928;-73
2022/07/19 06:50:01;;;;;;;;;;;;;;;24.19;43.83;100229.56;5094378;28;19924;-72
2022/07/19 06:52:51;;;;;;;;;;;;;;;24.25;43.36;100224.91;5112715;28;19927;-72
2022/07/19 06:55:20;;;;;;;;;;;;;;;24.34;43.42;100227.06;5115053;28;19930;-73
2022/07/19 06:57:48;;;;;;;;;;;;;;;24.45;43.05;100226.56;5115860;27;19954;-73
2022/07/19 07:00:16;;;;;;;;;;;;;;;24.57;42.88;100225.97;5116056;28;20034;-72
2022/07/19 07:02:45;;;;;;;;;;;;;;;24.71;42.52;100228.75;5116043;28;19924;-71
2022/07/19 07:05:14;;;;;;;;;;;;;;;24.80;42.06;100228.31;5116065;28;19927;-72
2022/07/19 07:07:42;;;;;;;;;;;;;;;24.84;41.51;100222.00;5115932;28;20416;-72
2022/07/19 07:10:12;;;;;;;;;;;;;;;24.95;41.74;100227.53;5116161;28;19928;-70
2022/07/19 07:12:41;;;;;;;;;;;;;;;25.07;41.62;100219.06;5115780;28;19930;-73
2022/07/19 07:15:10;;;;;;;;;;;;;;;25.17;41.24;100228.09;5115847;27;20278;-73
2022/07/19 07:17:38;;;;;;;;;;;;;;;25.28;40.72;100215.34;5115405;28;19936;-70
2022/07/19 07:20:07;;;;;;;;;;;;;;;25.42;40.42;100216.38;5115283;28;19923;-72
2022/07/19 07:22:36;;;;;;;;;;;;;;;25.63;40.05;100220.47;5112587;28;19924;-70
2022/07/19 07:25:06;;;;;;;;;;;;;;;25.85;40.29;100221.00;5094698;28;19924;-71
2022/07/19 07:27:38;;;;;;;;;;;;;;;26.10;39.96;100223.97;5094366;28;19975;-72
2022/07/19 07:30:07;;;;;;;;;;;;;;;26.19;39.88;100226.09;5077222;28;19924;-72
2022/07/19 07:32:35;;;;;;;;;;;;;;;26.40;40.13;100222.25;5094596;28;19928;-71
2022/07/19 07:35:04;;;;;;;;;;;;;;;26.53;39.53;100218.03;5094648;28;19928;-74
2022/07/19 07:37:32;;;;;;;;;;;;;;;26.54;38.39;100219.69;5095221;28;19932;-71
2022/07/19 07:40:01;;;;;;;;;;;;;;;26.63;38.72;100219.16;5094925;28;19924;-70
2022/07/19 07:42:31;;;;;;;;;;;;;;;26.74;38.62;100217.69;5094691;28;19924;-71
2022/07/19 07:45:01;;;;;;;;;;;;;;;26.87;38.44;100219.56;5095235;28;19974;-73
2022/07/19 07:47:29;;;;;;;;;;;;;;;26.86;37.56;100217.00;5094720;28;19931;-73
2022/07/19 07:49:58;;;;;;;;;;;;;;;26.97;37.63;100212.00;5094565;28;20382;-70
2022/07/19 07:52:26;;;;;;;;;;;;;;;27.06;37.78;100214.06;5097858;28;19931;-71
2022/07/19 07:54:55;;;;;;;;;;;;;;;27.07;37.49;100215.72;5114287;28;19923;-72
2022/07/19 07:57:43;;;;;;;;;;;;;;;27.11;36.95;100217.25;5113611;28;19959;-71
2022/07/19 08:00:14;;;;;;;;;;;;;;;27.29;36.64;100210.88;5114030;28;19923;-73
2022/07/19 08:02:43;;;;;;;;;;;;;;;27.55;35.58;100212.78;5114477;28;19932;-72
2022/07/19 08:05:12;;;;;;;;;;;;;;;27.62;34.84;100208.84;5113334;28;19931;-70
2022/07/19 08:07:40;;;;;;;;;;;;;;;27.68;34.47;100212.88;5114556;28;19923;-72
2022/07/19 08:10:11;;;;;;;;;;;;;;;27.83;34.04;100204.84;5114631;28;19945;-73
2022/07/19 08:12:40;;;;;;;;;;;;;;;27.91;33.76;100210.47;5114516;28;19924;-71
2022/07/19 08:15:10;;;;;;;;;;;;;;;27.95;33.32;100205.03;5114613;28;19924;-72
2022/07/19 08:17:39;;;;;;;;;;;;;;;28.02;32.93;100206.34;5114438;28;19924;-70
2022/07/19 08:20:09;;;;;;;;;;;;;;;28.21;32.53;100202.44;5115121;28;20026;-73
2022/07/19 08:22:37;;;;;;;;;;;;;;;28.33;32.12;100196.41;5112041;28;19923;-71
2022/07/19 08:25:06;;;;;;;;;;;;;;;28.42;32.01;100197.56;5094656;28;19924;-72
2022/07/19 08:27:34;;;;;;;;;;;;;;;28.47;31.83;100203.34;5094033;28;19931;-70
2022/07/19 08:30:04;;;;;;;;;;;;;;;28.59;32.16;100197.28;5104061;28;19923;-72
2022/07/19 08:32:36;;;;;;;;;;;;;;;28.66;32.05;100195.13;5111685;28;19959;-70
2022/07/19 08:35:07;;;;;;;;;;;;;;;28.71;31.54;100201.75;5109808;28;19924;-73
2022/07/19 08:37:36;;;;;;;;;;;;;;;28.67;31.41;100195.03;5113729;28;19924;-71
2022/07/19 08:40:06;;;;;;;;;;;;;;;28.77;31.52;100190.81;5111747;28;19938;-73
2022/07/19 08:42:35;;;;;;;;;;;;;;;28.87;31.33;100196.28;5117936;28;20026;-72
2022/07/19 08:45:05;;;;;;;;;;;;;;;28.91;31.10;100190.75;5117814;28;19976;-69
2022/07/19 08:47:35;;;;;;;;;;;;;;;28.96;31.20;100188.63;5117836;28;20026;-72
2022/07/19 08:50:05;;;;;;;;;;;;;;;28.95;30.78;100179.06;5118134;28;19924;-70
2022/07/19 08:52:35;;;;;;;;;;;;;;;28.98;30.50;100173.63;5117480;28;19924;-71
2022/07/19 08:55:04;;;;;;;;;;;;;;;29.05;30.59;100176.66;5111749;28;20143;-72
2022/07/19 09:00:12;;;;;;;;;;;;;;;29.42;29.35;100180.25;5106203;28;19955;-72
2022/07/19 09:02:53;;;;;;;;;;;;;;;29.41;28.02;100175.91;5097627;28;19993;-69
2022/07/19 09:05:22;;;;;;;;;;;;;;;29.36;28.02;100178.03;5099783;28;19997;-72
2022/07/19 09:08:01;;;;;;;;;;;;;;;29.50;28.42;100177.88;5103565;28;20267;-72
2022/07/19 09:10:32;;;;;;;;;;;;;;;29.57;28.14;100176.50;5113047;28;20362;-70
2022/07/19 09:13:02;;;;;;;;;;;;;;;29.76;28.11;100176.88;5111558;28;19928;-72
2022/07/19 09:15:42;;;;;;;;;;;;;;;29.88;27.98;100180.44;5112908;28;19927;-70
2022/07/19 09:18:11;;;;;;;;;;;;;;;30.02;28.33;100178.47;5116661;28;19931;-71
2022/07/19 09:20:40;;;;;;;;;;;;;;;30.15;27.94;100176.66;5114987;28;19924;-70
2022/07/19 09:23:08;;;;;;;;;;;;;;;30.31;27.89;100179.81;5117265;28;19977;-73
2022/07/19 09:25:39;;;;;;;;;;;;;;;30.29;27.23;100176.47;5117096;28;20338;-70
2022/07/19 09:28:08;;;;;;;;;;;;;;;30.50;27.66;100172.25;5117081;28;20015;-72
2022/07/19 09:30:38;;;;;;;;;;;;;;;30.62;27.46;100172.31;5114389;28;19950;-73
2022/07/19 09:33:16;;;;;;;;;;;;;;;30.56;27.28;100167.47;5099499;28;19993;-72
2022/07/19 09:35:45;;;;;;;;;;;;;;;30.52;27.57;100157.16;5099370;28;19946;-72
2022/07/19 09:38:17;;;;;;;;;;;;;;;30.56;27.35;100172.75;5103756;28;19923;-73
2022/07/19 09:40:48;;;;;;;;;;;;;;;30.36;27.30;100167.19;5104118;28;19938;-70
2022/07/19 09:43:16;;;;;;;;;;;;;;;30.29;27.24;100163.28;5114676;28;19923;-74
2022/07/19 09:46:05;;;;;;;;;;;;;;;30.36;27.72;100161.91;5116003;28;19928;-75
2022/07/19 09:48:43;;;;;;;;;;;;;;;30.48;28.06;100161.00;5106241;28;20031;-72
2022/07/19 09:51:12;;;;;;;;;;;;;;;30.53;27.96;100147.47;5116494;27;19930;-71
2022/07/19 09:53:41;;;;;;;;;;;;;;;30.65;28.46;100140.41;5117145;28;19931;-72
2022/07/19 09:56:12;;;;;;;;;;;;;;;30.67;27.46;100147.25;5117529;28;19969;-71
2022/07/19 09:58:42;;;;;;;;;;;;;;;30.68;27.90;100140.19;5113418;27;19924;-72
2022/07/19 10:01:11;;;;;;;;;;;;;;;30.78;27.63;100146.44;5113734;28;19924;-70
2022/07/19 10:03:40;;;;;;;;;;;;;;;30.80;27.36;100145.38;5116393;28;20377;-72
2022/07/19 10:06:08;;;;;;;;;;;;;;;30.88;27.70;100142.16;5116458;28;19924;-70
2022/07/19 10:08:37;;;;;;;;;;;;;;;30.98;27.85;100148.41;5113769;28;19928;-71
2022/07/19 10:11:07;;;;;;;;;;;;;;;31.00;27.29;100136.78;5115185;28;19924;-71
2022/07/19 10:13:36;;;;;;;;;;;;;;;31.15;26.92;100140.00;5116793;28;19949;-72
2022/07/19 10:16:08;;;;;;;;;;;;;;;31.21;26.35;100133.44;5117021;28;19992;-72
2022/07/19 10:18:43;;;;;;;;;;;;;;;31.29;26.98;100138.94;5114057;28;20441;-73
2022/07/19 10:21:12;;;;;;;;;;;;;;;31.30;26.70;100138.81;5096114;28;19924;-71
2022/07/19 10:23:50;;;;;;;;;;;;;;;31.40;26.74;100133.66;5096144;28;19924;-70
2022/07/19 10:26:34;;;;;;;;;;;;;;;31.67;27.29;100131.47;5096057;28;19924;-73
2022/07/19 10:29:10;;;;;;;;;;;;;;;31.90;26.92;100134.88;5096375;28;20374;-73
2022/07/19 10:31:40;;;;;;;;;;;;;;;31.88;26.14;100134.16;5095854;28;19924;-72
2022/07/19 10:34:09;;;;;;;;;;;;;;;31.75;25.90;100129.88;5094264;28;19954;-71
2022/07/19 10:36:39;;;;;;;;;;;;;;;31.81;25.93;100128.56;5095857;28;19977;-73
2022/07/19 10:39:18;;;;;;;;;;;;;;;31.91;25.83;100126.00;5096067;28;20431;-71
2022/07/19 10:42:01;;;;;;;;;;;;;;;32.16;25.80;100117.75;5095971;28;19958;-73
2022/07/19 10:44:31;;;;;;;;;;;;;;;32.07;25.45;100123.81;5102499;28;20295;-71
2022/07/19 10:47:00;;;;;;;;;;;;;;;31.94;25.54;100120.47;5114619;28;19930;-70
2022/07/19 10:49:39;;;;;;;;;;;;;;;31.89;25.36;100110.25;5114789;28;19963;-69
2022/07/19 10:52:22;;;;;;;;;;;;;;;31.77;25.35;100112.09;5115922;28;19950;-71
2022/07/19 10:55:24;;;;;;;;;;;;;;;31.72;25.59;100113.47;5115786;28;20014;-69
2022/07/19 10:57:54;;;;;;;;;;;;;;;31.66;25.60;100108.66;5109818;28;19924;-72
2022/07/19 11:00:25;;;;;;;;;;;;;;;31.68;25.42;100107.59;5115284;28;19924;-71
2022/07/19 11:03:16;;;;;;;;;;;;;;;31.69;25.21;100092.59;5114568;28;20012;-70
2022/07/19 11:05:48;;;;;;;;;;;;;;;31.68;24.95;100097.03;5113936;28;19975;-70
2022/07/19 11:08:16;;;;;;;;;;;;;;;31.76;25.13;100089.31;5106307;28;20308;-71
2022/07/19 11:10:45;;;;;;;;;;;;;;;31.99;25.85;100089.25;5111275;28;19931;-73
2022/07/19 11:13:17;;;;;;;;;;;;;;;32.22;25.59;100090.81;5103375;28;19935;-73
2022/07/19 11:15:56;;;;;;;;;;;;;;;32.53;25.60;100089.09;5105451;28;20744;-73
2022/07/19 11:18:24;;;;;;;;;;;;;;;32.82;26.28;100088.28;5099139;28;19931;-73
2022/07/19 11:20:53;;;;;;;;;;;;;;;32.86;24.94;100081.75;5094274;28;19928;-71
2022/07/19 11:23:21;;;;;;;;;;;;;;;32.88;24.47;100078.97;5094862;28;19924;-71
2022/07/19 11:25:51;;;;;;;;;;;;;;;32.85;24.68;100069.50;5094919;28;19931;-72
2022/07/19 11:28:22;;;;;;;;;;;;;;;32.86;24.44;100076.47;5094860;28;20448;-75
2022/07/19 11:30:51;;;;;;;;;;;;;;;32.52;23.96;100072.41;5095133;28;19989;-70
2022/07/19 11:33:22;;;;;;;;;;;;;;;32.35;24.59;100072.94;5095013;28;19931;-74
2022/07/19 11:35:55;;;;;;;;;;;;;;;32.27;24.11;100063.03;5109618;28;19932;-71
2022/07/19 11:38:24;;;;;;;;;;;;;;;32.23;24.26;100066.91;5114487;28;19937;-71
2022/07/19 11:40:52;;;;;;;;;;;;;;;32.34;24.61;100063.38;5114471;28;19923;-70
2022/07/19 11:43:22;;;;;;;;;;;;;;;32.47;24.24;100058.69;5114538;28;19931;-71
2022/07/19 11:45:51;;;;;;;;;;;;;;;32.69;24.56;100063.84;5114795;28;20404;-70
2022/07/19 11:48:28;;;;;;;;;;;;;;;32.63;24.09;100059.13;5114294;28;19977;-71
2022/07/19 11:51:07;;;;;;;;;;;;;;;32.67;23.84;100065.81;5111807;28;19928;-72
2022/07/19 11:53:36;;;;;;;;;;;;;;;32.70;23.61;100070.84;5114738;28;19923;-70
2022/07/19 11:56:05;;;;;;;;;;;;;;;32.64;24.21;100065.22;5114554;28;19985;-71
2022/07/19 11:58:34;;;;;;;;;;;;;;;32.65;23.49;100056.31;5114588;28;19923;-70
2022/07/19 12:01:04;;;;;;;;;;;;;;;32.69;23.61;100061.22;5114142;28;19966;-72
2022/07/19 12:03:33;;;;;;;;;;;;;;;32.72;23.90;100057.47;5113947;28;19924;-71
2022/07/19 12:06:04;;;;;;;;;;;;;;;32.79;23.72;100054.16;5114960;28;19923;-70
2022/07/19 12:08:33;;;;;;;;;;;;;;;32.84;24.07;100051.97;5114019;28;19924;-71
2022/07/19 12:11:02;;;;;;;;;;;;;;;33.03;23.62;100056.50;5114113;28;19930;-70
2022/07/19 12:13:31;;;;;;;;;;;;;;;33.22;23.53;100047.78;5113939;28;19931;-72
2022/07/19 12:16:01;;;;;;;;;;;;;;;33.37;23.27;100044.63;5112006;28;19975;-70
2022/07/19 12:18:40;;;;;;;;;;;;;;;33.40;23.19;100043.50;5113981;28;19924;-72
2022/07/19 12:21:21;;;;;;;;;;;;;;;33.59;23.66;100038.25;5113224;28;20014;-70
2022/07/19 12:24:00;;;;;;;;;;;;;;;33.65;23.52;100043.00;5114446;28;19924;-72
2022/07/19 12:26:29;;;;;;;;;;;;;;;33.66;23.20;100037.56;5107007;28;19928;-71
2022/07/19 12:29:19;;;;;;;;;;;;;;;33.53;22.73;100034.34;5099249;28;19924;-70
2022/07/19 12:31:48;;;;;;;;;;;;;;;33.43;22.68;100032.63;5109486;28;19931;-71
2022/07/19 12:34:17;;;;;;;;;;;;;;;33.44;23.27;100031.66;5110897;28;19967;-70
2022/07/19 12:36:47;;;;;;;;;;;;;;;33.50;23.51;100036.38;5113926;28;19969;-69
2022/07/19 12:39:23;;;;;;;;;;;;;;;33.63;23.62;100040.50;5113770;28;19923;-72
2022/07/19 12:41:58;;;;;;;;;;;;;;;33.60;23.01;100029.31;5112880;28;19924;-72
2022/07/19 12:44:27;;;;;;;;;;;;;;;33.68;23.20;100026.81;5112513;28;20350;-70
2022/07/19 12:46:55;;;;;;;;;;;;;;;33.65;22.98;100016.50;5110905;28;20392;-71
2022/07/19 12:49:45;;;;;;;;;;;;;;;33.68;23.46;100032.13;5093985;28;20378;-70
2022/07/19 12:52:15;;;;;;;;;;;;;;;33.69;23.33;100028.47;5111531;28;19924;-71